SLSN weather

Public forecast

Using degrees Celsius for public forecast. Weather courtesy of forecast.io.

Closest aviation weather report (METAR) to Sanandita Airport

Report is more than 6 hours old.

Closest report is Yacuiba Airport, 18.9 nm (35.0 km) S. Retrieved 2020/08/11 18:00 UTC (7 hours ago):

SLYA 111800Z 21006KT 9999 NSC 19/05 Q1015

Closest aviation forecast (TAF) to Sanandita Airport

Forecast is more than 6 hours old.

Closest forecast is Yacuiba Airport, 18.9 nm (35.0 km) S. Retrieved 2020/08/11 18:30 UTC (6 hours ago):

TAF SLYA 111630Z 1118/1218 21010KT 9999 FEW023 BKN070 TX22/1119Z TN10/1211Z BECMG 1120/1122 00000KT